Time,TemperatureF,DewpointF,PressureIn,WindDirection,WindDirectionDegrees,WindSpeedMPH,WindSpeedGustMPH,Humidity,HourlyPrecipIn,Conditions,Clouds,dailyrainin,SoftwareType,DateUTC
2013-02-15 00:00:00,57.0,38.0,30.07,NE,51,0.0,0.0,49,0.00,,---,0.00,VWS V14.01,2013-02-15 08:00:00,
2013-02-15 00:09:00,55.6,37.3,30.07,NE,51,0.0,0.0,50,0.00,,---,0.00,VWS V14.01,2013-02-15 08:09:00,
2013-02-15 00:14:00,55.7,35.3,30.07,NE,51,0.0,0.0,46,0.00,,---,0.00,VWS V14.01,2013-02-15 08:14:00,
2013-02-15 00:19:00,57.3,35.6,30.07,NE,51,0.0,0.0,44,0.00,,---,0.00,VWS V14.01,2013-02-15 08:19:00,
2013-02-15 00:24:00,59.6,34.6,30.07,NE,51,0.0,0.0,39,0.00,,---,0.00,VWS V14.01,2013-02-15 08:24:00,
2013-02-15 00:29:00,61.8,34.6,30.06,NE,51,0.0,0.0,36,0.00,,---,0.00,VWS V14.01,2013-02-15 08:29:00,
2013-02-15 00:34:00,63.2,35.1,30.06,NE,51,0.0,0.0,35,0.00,,---,0.00,VWS V14.01,2013-02-15 08:34:00,
2013-02-15 00:39:00,64.5,35.5,30.06,NE,51,0.0,0.0,34,0.00,,---,0.00,VWS V14.01,2013-02-15 08:39:00,
2013-02-15 00:44:00,65.2,35.4,30.06,NE,51,0.0,0.0,33,0.00,,---,0.00,VWS V14.01,2013-02-15 08:44:00,
2013-02-15 00:49:00,65.5,34.9,30.06,NE,51,0.0,0.0,32,0.00,,---,0.00,VWS V14.01,2013-02-15 08:49:00,
2013-02-15 00:59:00,66.1,34.6,30.06,NE,51,0.0,0.0,31,0.00,,---,0.00,VWS V14.01,2013-02-15 08:59:00,
2013-02-15 01:09:00,66.1,34.6,30.06,NE,51,0.0,0.0,31,0.00,,---,0.00,VWS V14.01,2013-02-15 09:09:00,
2013-02-15 01:14:00,66.4,34.9,30.06,NE,51,0.0,0.0,31,0.00,,---,0.00,VWS V14.01,2013-02-15 09:14:00,
2013-02-15 01:19:00,66.6,35.0,30.06,NE,51,0.0,0.0,31,0.00,,---,0.00,VWS V14.01,2013-02-15 09:19:00,
2013-02-15 01:24:00,66.9,35.3,30.06,NE,51,0.0,0.0,31,0.00,,---,0.00,VWS V14.01,2013-02-15 09:24:00,
2013-02-15 01:29:00,66.9,34.5,30.06,NE,51,0.0,0.0,30,0.00,,---,0.00,VWS V14.01,2013-02-15 09:29:00,
2013-02-15 01:34:00,67.4,34.9,30.06,NE,51,0.0,0.0,30,0.00,,---,0.00,VWS V14.01,2013-02-15 09:34:00,
2013-02-15 01:39:00,67.6,34.2,30.06,NE,51,0.0,0.0,29,0.00,,---,0.00,VWS V14.01,2013-02-15 09:39:00,
2013-02-15 01:44:00,67.3,34.8,30.05,NE,51,0.0,0.0,30,0.00,,---,0.00,VWS V14.01,2013-02-15 09:44:00,
2013-02-15 01:49:00,66.8,34.4,30.05,NE,51,0.0,0.0,30,0.00,,---,0.00,VWS V14.01,2013-02-15 09:49:00,
2013-02-15 01:54:00,66.8,34.4,30.05,NE,51,0.0,0.0,30,0.00,,---,0.00,VWS V14.01,2013-02-15 09:54:00,
2013-02-15 01:59:00,66.8,34.4,30.05,NE,51,0.0,0.0,30,0.00,,---,0.00,VWS V14.01,2013-02-15 09:59:00,
2013-02-15 02:09:00,66.1,34.6,30.05,NE,51,0.0,0.0,31,0.00,,---,0.00,VWS V14.01,2013-02-15 10:09:00,
2013-02-15 02:14:00,65.8,34.3,30.05,NE,51,0.0,0.0,31,0.00,,---,0.00,VWS V14.01,2013-02-15 10:14:00,
2013-02-15 02:24:00,66.0,33.7,30.05,NE,51,0.0,0.0,30,0.00,,---,0.00,VWS V14.01,2013-02-15 10:24:00,
2013-02-15 02:29:00,66.3,34.0,30.05,NE,51,0.0,0.0,30,0.00,,---,0.00,VWS V14.01,2013-02-15 10:29:00,
2013-02-15 02:34:00,66.4,34.0,30.05,NE,51,0.0,0.0,30,0.00,,---,0.00,VWS V14.01,2013-02-15 10:34:00,
2013-02-15 02:44:00,66.0,34.5,30.05,NE,51,0.0,0.0,31,0.00,,---,0.00,VWS V14.01,2013-02-15 10:44:00,
2013-02-15 02:49:00,65.6,34.2,30.05,NE,51,0.0,0.0,31,0.00,,---,0.00,VWS V14.01,2013-02-15 10:49:00,
2013-02-15 02:54:00,65.3,33.9,30.05,NE,51,0.0,0.0,31,0.00,,---,0.00,VWS V14.01,2013-02-15 10:54:00,
2013-02-15 02:59:00,64.8,33.5,30.05,NE,51,0.0,0.0,31,0.00,,---,0.00,VWS V14.01,2013-02-15 10:59:00,
2013-02-15 03:04:00,64.7,34.2,30.05,NE,51,0.0,0.0,32,0.00,,---,0.00,VWS V14.01,2013-02-15 11:04:00,
2013-02-15 03:14:00,64.2,33.8,30.05,NE,51,0.0,0.0,32,0.00,,---,0.00,VWS V14.01,2013-02-15 11:14:00,
2013-02-15 03:19:00,64.0,33.6,30.05,NE,51,0.0,0.0,32,0.00,,---,0.00,VWS V14.01,2013-02-15 11:19:00,
2013-02-15 03:24:00,64.0,33.6,30.05,NE,51,0.0,0.0,32,0.00,,---,0.00,VWS V14.01,2013-02-15 11:24:00,
2013-02-15 03:35:00,64.7,33.4,30.05,NE,51,0.0,0.0,31,0.00,,---,0.00,VWS V14.01,2013-02-15 11:35:00,
2013-02-15 03:44:00,64.3,33.8,30.05,NE,51,0.0,0.0,32,0.00,,---,0.00,VWS V14.01,2013-02-15 11:44:00,
2013-02-15 03:49:00,64.0,33.6,30.05,NE,51,0.0,0.0,32,0.00,,---,0.00,VWS V14.01,2013-02-15 11:49:00,
2013-02-15 03:54:00,63.7,34.1,30.05,NE,51,0.0,0.0,33,0.00,,---,0.00,VWS V14.01,2013-02-15 11:54:00,
2013-02-15 04:00:00,63.4,33.8,30.06,NE,51,0.0,0.0,33,0.00,,---,0.00,VWS V14.01,2013-02-15 12:00:00,
2013-02-15 04:05:00,63.2,33.6,30.06,NE,51,0.0,0.0,33,0.00,,---,0.00,VWS V14.01,2013-02-15 12:05:00,
2013-02-15 04:14:00,63.2,33.6,30.06,NE,51,0.0,0.0,33,0.00,,---,0.00,VWS V14.01,2013-02-15 12:14:00,
2013-02-15 04:19:00,63.1,33.6,30.06,NE,51,0.0,0.0,33,0.00,,---,0.00,VWS V14.01,2013-02-15 12:19:00,
2013-02-15 04:24:00,63.1,33.6,30.06,NE,51,0.0,0.0,33,0.00,,---,0.00,VWS V14.01,2013-02-15 12:24:00,
2013-02-15 04:29:00,63.2,32.9,30.06,NE,51,0.0,0.0,32,0.00,,---,0.00,VWS V14.01,2013-02-15 12:29:00,
2013-02-15 04:35:00,63.4,33.0,30.06,NE,51,0.0,0.0,32,0.00,,---,0.00,VWS V14.01,2013-02-15 12:35:00,
2013-02-15 04:40:00,63.4,33.0,30.06,NE,51,0.0,0.0,32,0.00,,---,0.00,VWS V14.01,2013-02-15 12:40:00,
2013-02-15 04:50:00,63.9,32.7,30.06,NE,51,0.0,0.0,31,0.00,,---,0.00,VWS V14.01,2013-02-15 12:50:00,
2013-02-15 04:59:00,64.3,33.0,30.07,NE,51,0.0,0.0,31,0.00,,---,0.00,VWS V14.01,2013-02-15 12:59:00,
2013-02-15 05:05:00,64.3,33.0,30.07,NE,51,0.0,0.0,31,0.00,,---,0.00,VWS V14.01,2013-02-15 13:05:00,
2013-02-15 05:14:00,64.2,33.0,30.07,NE,51,0.0,0.0,31,0.00,,---,0.00,VWS V14.01,2013-02-15 13:14:00,
2013-02-15 05:19:00,64.2,33.0,30.07,NE,51,0.0,0.0,31,0.00,,---,0.00,VWS V14.01,2013-02-15 13:19:00,
2013-02-15 05:24:00,64.2,33.0,30.07,NE,51,0.0,0.0,31,0.00,,---,0.00,VWS V14.01,2013-02-15 13:24:00,
2013-02-15 05:29:00,64.3,33.0,30.07,NE,51,0.0,0.0,31,0.00,,---,0.00,VWS V14.01,2013-02-15 13:29:00,
2013-02-15 05:34:00,64.5,32.4,30.07,NE,51,0.0,0.0,30,0.00,,---,0.00,VWS V14.01,2013-02-15 13:34:00,
2013-02-15 05:39:00,64.7,33.4,30.07,NE,51,0.0,0.0,31,0.00,,---,0.00,VWS V14.01,2013-02-15 13:39:00,
2013-02-15 05:44:00,64.7,32.6,30.06,NE,51,0.0,0.0,30,0.00,,---,0.00,VWS V14.01,2013-02-15 13:44:00,
2013-02-15 05:49:00,64.7,33.4,30.06,NE,51,0.0,0.0,31,0.00,,---,0.00,VWS V14.01,2013-02-15 13:49:00,
2013-02-15 05:55:00,64.7,32.6,30.06,NE,51,0.0,0.0,30,0.00,,---,0.00,VWS V14.01,2013-02-15 13:55:00,
2013-02-15 05:59:00,64.7,32.6,30.07,NE,51,0.0,0.0,30,0.00,,---,0.00,VWS V14.01,2013-02-15 13:59:00,
2013-02-15 06:09:00,64.8,32.7,30.07,NE,51,0.0,0.0,30,0.00,,---,0.00,VWS V14.01,2013-02-15 14:09:00,
2013-02-15 06:14:00,65.0,32.8,30.07,NE,51,0.0,0.0,30,0.00,,---,0.00,VWS V14.01,2013-02-15 14:14:00,
2013-02-15 06:19:00,65.5,33.3,30.07,NE,51,0.0,0.0,30,0.00,,---,0.00,VWS V14.01,2013-02-15 14:19:00,
2013-02-15 06:25:00,65.3,33.1,30.07,NE,51,0.0,0.0,30,0.00,,---,0.00,VWS V14.01,2013-02-15 14:25:00,
2013-02-15 06:34:00,65.3,33.1,30.08,NE,51,0.0,0.0,30,0.00,,---,0.00,VWS V14.01,2013-02-15 14:34:00,
2013-02-15 06:40:00,65.3,33.1,30.08,NE,51,0.0,0.0,30,0.00,,---,0.00,VWS V14.01,2013-02-15 14:40:00,
2013-02-15 06:49:00,65.3,33.1,30.08,NE,51,0.0,0.0,30,0.00,,---,0.00,VWS V14.01,2013-02-15 14:49:00,
2013-02-15 06:55:00,65.5,33.3,30.08,NE,51,0.0,0.0,30,0.00,,---,0.00,VWS V14.01,2013-02-15 14:55:00,
2013-02-15 07:05:00,65.3,33.1,30.08,NE,51,0.0,0.0,30,0.00,,---,0.00,VWS V14.01,2013-02-15 15:05:00,
2013-02-15 07:15:00,65.5,33.3,30.09,ENE,59,7.0,16.0,30,0.00,,---,0.00,VWS V14.01,2013-02-15 15:15:00,
2013-02-15 07:25:00,65.5,33.3,30.09,NE,41,10.0,16.0,30,0.00,,---,0.00,VWS V14.01,2013-02-15 15:25:00,
2013-02-15 07:35:00,66.0,33.7,30.10,ENE,65,9.0,13.0,30,0.00,,---,0.00,VWS V14.01,2013-02-15 15:35:00,
2013-02-15 07:44:00,66.6,33.4,30.10,NE,38,6.0,17.0,29,0.00,,---,0.00,VWS V14.01,2013-02-15 15:44:00,
2013-02-15 07:49:00,66.9,33.6,30.10,ENE,69,8.0,17.0,29,0.00,,---,0.00,VWS V14.01,2013-02-15 15:49:00,
2013-02-15 07:54:00,67.3,34.0,30.10,NE,52,14.0,14.0,29,0.00,,---,0.00,VWS V14.01,2013-02-15 15:54:00,
2013-02-15 08:00:00,67.4,34.1,30.10,ENE,72,6.0,15.0,29,0.00,,---,0.00,VWS V14.01,2013-02-15 16:00:00,
2013-02-15 08:09:00,68.1,34.7,30.10,NE,47,7.0,14.0,29,0.00,,---,0.00,VWS V14.01,2013-02-15 16:09:00,
2013-02-15 08:14:00,68.3,34.0,30.10,NE,56,12.0,12.0,28,0.00,,---,0.00,VWS V14.01,2013-02-15 16:14:00,
2013-02-15 08:25:00,68.8,34.4,30.10,NNE,27,9.0,12.0,28,0.00,,---,0.00,VWS V14.01,2013-02-15 16:25:00,
2013-02-15 08:35:00,69.3,33.9,30.11,ENE,66,10.0,16.0,27,0.00,,---,0.00,VWS V14.01,2013-02-15 16:35:00,
2013-02-15 08:44:00,69.6,35.1,30.11,ENE,59,3.0,12.0,28,0.00,,---,0.00,VWS V14.01,2013-02-15 16:44:00,
2013-02-15 08:50:00,69.8,35.3,30.11,ENE,66,10.0,16.0,28,0.00,,---,0.00,VWS V14.01,2013-02-15 16:50:00,
2013-02-15 08:55:00,69.9,34.4,30.11,East,96,9.0,16.0,27,0.00,,---,0.00,VWS V14.01,2013-02-15 16:55:00,
2013-02-15 09:05:00,70.6,35.0,30.11,NE,54,10.0,14.0,27,0.00,,---,0.00,VWS V14.01,2013-02-15 17:05:00,
2013-02-15 09:10:00,70.4,33.9,30.11,NE,55,6.0,16.0,26,0.00,,---,0.00,VWS V14.01,2013-02-15 17:10:00,
2013-02-15 09:19:00,71.1,37.3,30.12,ENE,73,0.0,17.0,29,0.00,,---,0.00,VWS V14.01,2013-02-15 17:19:00,
2013-02-15 09:25:00,71.6,35.9,30.12,NE,38,6.0,12.0,27,0.00,,---,0.00,VWS V14.01,2013-02-15 17:25:00,
2013-02-15 09:30:00,71.5,35.8,30.12,NE,52,5.0,16.0,27,0.00,,---,0.00,VWS V14.01,2013-02-15 17:30:00,
2013-02-15 09:35:00,71.6,35.9,30.12,NE,56,13.0,20.0,27,0.00,,---,0.00,VWS V14.01,2013-02-15 17:35:00,
2013-02-15 09:40:00,71.8,36.0,30.12,East,85,7.0,16.0,27,0.00,,---,0.00,VWS V14.01,2013-02-15 17:40:00,
2013-02-15 09:50:00,72.3,36.5,30.12,NE,48,6.0,19.0,27,0.00,,---,0.00,VWS V14.01,2013-02-15 17:50:00,
2013-02-15 10:00:00,72.8,36.0,30.12,ESE,106,6.0,14.0,26,0.00,,---,0.00,VWS V14.01,2013-02-15 18:00:00,
2013-02-15 10:09:00,73.7,37.7,30.12,NE,52,2.0,12.0,27,0.00,,---,0.00,VWS V14.01,2013-02-15 18:09:00,
2013-02-15 10:14:00,73.9,36.9,30.12,ENE,68,3.0,10.0,26,0.00,,---,0.00,VWS V14.01,2013-02-15 18:14:00,
2013-02-15 10:19:00,74.4,38.3,30.12,NE,42,5.0,11.0,27,0.00,,---,0.00,VWS V14.01,2013-02-15 18:19:00,
2013-02-15 10:24:00,74.7,37.6,30.12,NE,56,8.0,10.0,26,0.00,,---,0.00,VWS V14.01,2013-02-15 18:24:00,
2013-02-15 10:30:00,75.3,39.0,30.12,ENE,65,7.0,12.0,27,0.00,,---,0.00,VWS V14.01,2013-02-15 18:30:00,
2013-02-15 10:35:00,75.3,37.1,30.12,ENE,68,6.0,12.0,25,0.00,,---,0.00,VWS V14.01,2013-02-15 18:35:00,
2013-02-15 10:44:00,75.1,36.9,30.13,SE,130,2.0,13.0,25,0.00,,---,0.00,VWS V14.01,2013-02-15 18:44:00,
2013-02-15 10:49:00,75.4,36.1,30.13,ENE,61,11.0,16.0,24,0.00,,---,0.00,VWS V14.01,2013-02-15 18:49:00,
2013-02-15 10:55:00,75.4,37.2,30.13,ENE,76,9.0,12.0,25,0.00,,---,0.00,VWS V14.01,2013-02-15 18:55:00,
2013-02-15 11:00:00,75.8,37.5,30.13,ENE,64,12.0,16.0,25,0.00,,---,0.00,VWS V14.01,2013-02-15 19:00:00,
2013-02-15 11:09:00,76.1,36.7,30.13,ENE,64,2.0,18.0,24,0.00,,---,0.00,VWS V14.01,2013-02-15 19:09:00,
2013-02-15 11:14:00,76.7,38.3,30.11,NE,52,14.0,14.0,25,0.00,,---,0.00,VWS V14.01,2013-02-15 19:14:00,
2013-02-15 11:19:00,77.0,38.5,30.11,ESE,104,8.0,14.0,25,0.00,,---,0.00,VWS V14.01,2013-02-15 19:19:00,
2013-02-15 11:24:00,77.0,37.5,30.11,NNE,31,5.0,18.0,24,0.00,,---,0.00,VWS V14.01,2013-02-15 19:24:00,
2013-02-15 11:30:00,77.0,36.4,30.11,ESE,107,10.0,12.0,23,0.00,,---,0.00,VWS V14.01,2013-02-15 19:30:00,
2013-02-15 11:39:00,77.0,36.4,30.11,North,4,16.0,16.0,23,0.00,,---,0.00,VWS V14.01,2013-02-15 19:39:00,
2013-02-15 11:45:00,77.0,36.4,30.09,ESE,106,9.0,31.0,23,0.00,,---,0.00,VWS V14.01,2013-02-15 19:45:00,
2013-02-15 11:55:00,77.4,37.8,30.09,East,82,16.0,16.0,24,0.00,,---,0.00,VWS V14.01,2013-02-15 19:55:00,
2013-02-15 12:00:00,77.4,36.7,30.09,NE,49,8.0,16.0,23,0.00,,---,0.00,VWS V14.01,2013-02-15 20:00:00,
2013-02-15 12:05:00,77.7,39.1,30.09,East,85,2.0,16.0,25,0.00,,---,0.00,VWS V14.01,2013-02-15 20:05:00,
2013-02-15 12:10:00,77.4,36.7,30.09,ESE,107,3.0,19.0,23,0.00,,---,0.00,VWS V14.01,2013-02-15 20:10:00,
2013-02-15 12:20:00,77.6,35.8,30.09,ESE,102,10.0,13.0,22,0.00,,---,0.00,VWS V14.01,2013-02-15 20:20:00,
2013-02-15 12:25:00,78.1,38.4,30.09,SE,128,1.0,13.0,24,0.00,,---,0.00,VWS V14.01,2013-02-15 20:25:00,
2013-02-15 12:30:00,78.5,37.7,30.07,NE,56,7.0,12.0,23,0.00,,---,0.00,VWS V14.01,2013-02-15 20:30:00,
2013-02-15 12:40:00,78.8,36.8,30.07,ENE,66,8.0,12.0,22,0.00,,---,0.00,VWS V14.01,2013-02-15 20:40:00,
2013-02-15 12:49:00,78.5,37.7,30.07,ENE,69,6.0,16.0,23,0.00,,---,0.00,VWS V14.01,2013-02-15 20:49:00,
2013-02-15 12:54:00,79.0,37.0,30.07,NE,40,7.0,18.0,22,0.00,,---,0.00,VWS V14.01,2013-02-15 20:54:00,
2013-02-15 13:00:00,79.2,37.1,30.07,North,11,14.0,20.0,22,0.00,,---,0.00,VWS V14.01,2013-02-15 21:00:00,
2013-02-15 13:09:00,79.4,37.3,30.07,NE,56,9.0,16.0,22,0.00,,---,0.00,VWS V14.01,2013-02-15 21:09:00,
2013-02-15 13:15:00,79.8,37.6,30.05,East,88,8.0,13.0,22,0.00,,---,0.00,VWS V14.01,2013-02-15 21:15:00,
2013-02-15 13:20:00,79.9,36.5,30.05,NE,38,4.0,17.0,21,0.00,,---,0.00,VWS V14.01,2013-02-15 21:20:00,
2013-02-15 13:29:00,80.1,36.7,30.04,SSE,158,5.0,10.0,21,0.00,,---,0.00,VWS V14.01,2013-02-15 21:29:00,
2013-02-15 13:35:00,80.5,38.2,30.04,ENE,75,7.0,16.0,22,0.00,,---,0.00,VWS V14.01,2013-02-15 21:35:00,
2013-02-15 13:45:00,79.9,36.5,30.04,NE,37,4.0,16.0,21,0.00,,---,0.00,VWS V14.01,2013-02-15 21:45:00,
2013-02-15 13:54:00,80.3,35.6,30.04,ENE,62,4.0,13.0,20,0.00,,---,0.00,VWS V14.01,2013-02-15 21:54:00,
2013-02-15 14:00:00,80.1,35.5,30.04,ESE,110,8.0,19.0,20,0.00,,---,0.00,VWS V14.01,2013-02-15 22:00:00,
2013-02-15 14:10:00,79.8,35.2,30.04,NE,47,9.0,18.0,20,0.00,,---,0.00,VWS V14.01,2013-02-15 22:10:00,
2013-02-15 14:19:00,79.8,36.4,30.04,NE,48,3.0,13.0,21,0.00,,---,0.00,VWS V14.01,2013-02-15 22:19:00,
2013-02-15 14:24:00,80.3,39.2,30.04,ENE,75,5.0,12.0,23,0.00,,---,0.00,VWS V14.01,2013-02-15 22:24:00,
2013-02-15 14:29:00,80.1,36.7,30.03,NE,41,10.0,16.0,21,0.00,,---,0.00,VWS V14.01,2013-02-15 22:29:00,
2013-02-15 14:35:00,80.3,36.8,30.03,NNE,16,13.0,14.0,21,0.00,,---,0.00,VWS V14.01,2013-02-15 22:35:00,
2013-02-15 14:44:00,79.8,35.2,30.03,East,79,0.0,16.0,20,0.00,,---,0.00,VWS V14.01,2013-02-15 22:44:00,
2013-02-15 14:49:00,79.8,35.2,30.03,East,92,11.0,13.0,20,0.00,,---,0.00,VWS V14.01,2013-02-15 22:49:00,
2013-02-15 14:55:00,79.9,35.3,30.03,NE,49,6.0,14.0,20,0.00,,---,0.00,VWS V14.01,2013-02-15 22:55:00,
2013-02-15 15:04:00,79.9,36.5,30.03,NNE,20,9.0,16.0,21,0.00,,---,0.00,VWS V14.01,2013-02-15 23:04:00,
2013-02-15 15:10:00,79.6,36.3,30.03,NE,40,7.0,19.0,21,0.00,,---,0.00,VWS V14.01,2013-02-15 23:10:00,
2013-02-15 15:19:00,77.9,34.9,30.03,NE,38,6.0,17.0,21,0.00,,---,0.00,VWS V14.01,2013-02-15 23:19:00,
2013-02-15 15:24:00,77.9,36.0,30.03,North,0,10.0,13.0,22,0.00,,---,0.00,VWS V14.01,2013-02-15 23:24:00,
2013-02-15 15:29:00,78.5,35.4,30.03,NNE,16,6.0,13.0,21,0.00,,---,0.00,VWS V14.01,2013-02-15 23:29:00,
2013-02-15 15:35:00,78.5,36.5,30.03,NNE,13,3.0,16.0,22,0.00,,---,0.00,VWS V14.01,2013-02-15 23:35:00,
2013-02-15 15:40:00,77.6,36.9,30.03,NNE,30,2.0,9.0,23,0.00,,---,0.00,VWS V14.01,2013-02-15 23:40:00,
2013-02-15 15:49:00,78.1,35.0,30.04,East,90,0.0,8.0,21,0.00,,---,0.00,VWS V14.01,2013-02-15 23:49:00,
2013-02-15 15:54:00,77.7,35.9,30.04,ENE,72,5.0,8.0,22,0.00,,---,0.00,VWS V14.01,2013-02-15 23:54:00,
2013-02-15 16:00:00,77.4,38.9,30.04,East,82,0.0,5.0,25,0.00,,---,0.00,VWS V14.01,2013-02-16 00:00:00,
2013-02-15 16:10:00,77.2,35.5,30.04,NE,45,8.0,8.0,22,0.00,,---,0.00,VWS V14.01,2013-02-16 00:10:00,
2013-02-15 16:19:00,76.5,34.9,30.05,NE,55,0.0,10.0,22,0.00,,---,0.00,VWS V14.01,2013-02-16 00:19:00,
2013-02-15 16:24:00,75.8,35.4,30.05,East,83,7.0,7.0,23,0.00,,---,0.00,VWS V14.01,2013-02-16 00:24:00,
2013-02-15 16:29:00,75.8,33.1,30.05,ENE,69,6.0,10.0,21,0.00,,---,0.00,VWS V14.01,2013-02-16 00:29:00,
2013-02-15 16:34:00,75.6,34.1,30.05,ENE,59,6.0,7.0,22,0.00,,---,0.00,VWS V14.01,2013-02-16 00:34:00,
2013-02-15 16:39:00,75.1,34.8,30.05,NE,38,5.0,7.0,23,0.00,,---,0.00,VWS V14.01,2013-02-16 00:39:00,
2013-02-15 16:44:00,74.6,34.4,30.06,NNE,28,3.0,8.0,23,0.00,,---,0.00,VWS V14.01,2013-02-16 00:44:00,
2013-02-15 16:50:00,74.7,33.4,30.06,East,100,3.0,11.0,22,0.00,,---,0.00,VWS V14.01,2013-02-16 00:50:00,
2013-02-15 16:55:00,74.9,32.4,30.06,East,93,2.0,10.0,21,0.00,,---,0.00,VWS V14.01,2013-02-16 00:55:00,
2013-02-15 17:00:00,75.1,31.3,30.05,ENE,68,5.0,7.0,20,0.00,,---,0.00,VWS V14.01,2013-02-16 01:00:00,
2013-02-15 17:09:00,74.6,35.5,30.05,NE,56,0.0,0.0,24,0.00,,---,0.00,VWS V14.01,2013-02-16 01:09:00,
2013-02-15 17:14:00,74.0,35.0,30.06,East,85,0.0,4.0,24,0.00,,---,0.00,VWS V14.01,2013-02-16 01:14:00,
2013-02-15 17:19:00,73.9,34.9,30.06,NE,52,0.0,0.0,24,0.00,,---,0.00,VWS V14.01,2013-02-16 01:19:00,
2013-02-15 17:24:00,73.5,34.5,30.06,NE,52,0.0,0.0,24,0.00,,---,0.00,VWS V14.01,2013-02-16 01:24:00,
2013-02-15 17:30:00,73.0,33.0,30.06,ENE,61,4.0,7.0,23,0.00,,---,0.00,VWS V14.01,2013-02-16 01:30:00,
2013-02-15 17:35:00,72.7,33.9,30.06,NE,42,0.0,6.0,24,0.00,,---,0.00,VWS V14.01,2013-02-16 01:35:00,
2013-02-15 17:45:00,71.8,34.1,30.07,NNE,20,3.0,8.0,25,0.00,,---,0.00,VWS V14.01,2013-02-16 01:45:00,
2013-02-15 17:54:00,70.8,32.3,30.07,NE,48,0.0,0.0,24,0.00,,---,0.00,VWS V14.01,2013-02-16 01:54:00,
2013-02-15 17:59:00,70.4,32.9,30.07,NE,45,0.0,0.0,25,0.00,,---,0.00,VWS V14.01,2013-02-16 01:59:00,
2013-02-15 18:05:00,70.1,31.7,30.07,North,10,6.0,12.0,24,0.00,,---,0.00,VWS V14.01,2013-02-16 02:05:00,
2013-02-15 18:15:00,70.1,30.6,30.08,North,6,0.0,6.0,23,0.00,,---,0.00,VWS V14.01,2013-02-16 02:15:00,
2013-02-15 18:25:00,70.1,31.7,30.08,NE,38,0.0,0.0,24,0.00,,---,0.00,VWS V14.01,2013-02-16 02:25:00,
2013-02-15 18:30:00,69.9,30.5,30.08,NE,45,0.0,7.0,23,0.00,,---,0.00,VWS V14.01,2013-02-16 02:30:00,
2013-02-15 18:39:00,69.6,30.2,30.08,North,7,6.0,7.0,23,0.00,,---,0.00,VWS V14.01,2013-02-16 02:39:00,
2013-02-15 18:44:00,69.6,30.2,30.08,NE,52,0.0,7.0,23,0.00,,---,0.00,VWS V14.01,2013-02-16 02:44:00,
2013-02-15 18:49:00,69.4,31.1,30.08,NE,51,0.0,0.0,24,0.00,,---,0.00,VWS V14.01,2013-02-16 02:49:00,
2013-02-15 18:55:00,69.1,31.8,30.08,NE,51,0.0,0.0,25,0.00,,---,0.00,VWS V14.01,2013-02-16 02:55:00,
2013-02-15 19:00:00,68.8,30.6,30.08,NE,45,0.0,0.0,24,0.00,,---,0.00,VWS V14.01,2013-02-16 03:00:00,
2013-02-15 19:09:00,68.3,30.1,30.08,NE,45,0.0,0.0,24,0.00,,---,0.00,VWS V14.01,2013-02-16 03:09:00,
2013-02-15 19:14:00,68.1,30.0,30.09,NE,45,0.0,0.0,24,0.00,,---,0.00,VWS V14.01,2013-02-16 03:14:00,
2013-02-15 19:19:00,67.9,29.8,30.09,NE,45,0.0,0.0,24,0.00,,---,0.00,VWS V14.01,2013-02-16 03:19:00,
2013-02-15 19:24:00,67.9,29.8,30.09,NE,45,0.0,0.0,24,0.00,,---,0.00,VWS V14.01,2013-02-16 03:24:00,
2013-02-15 19:30:00,68.1,28.9,30.09,NE,45,0.0,0.0,23,0.00,,---,0.00,VWS V14.01,2013-02-16 03:30:00,
2013-02-15 19:35:00,68.4,29.2,30.09,NE,45,0.0,0.0,23,0.00,,---,0.00,VWS V14.01,2013-02-16 03:35:00,
2013-02-15 19:44:00,69.1,29.8,30.09,NE,45,0.0,0.0,23,0.00,,---,0.00,VWS V14.01,2013-02-16 03:44:00,
2013-02-15 19:50:00,69.1,30.8,30.09,NE,45,0.0,0.0,24,0.00,,---,0.00,VWS V14.01,2013-02-16 03:50:00,
2013-02-15 19:55:00,68.9,29.6,30.09,NE,45,0.0,0.0,23,0.00,,---,0.00,VWS V14.01,2013-02-16 03:55:00,
2013-02-15 20:00:00,68.8,29.5,30.09,NE,45,0.0,0.0,23,0.00,,---,0.00,VWS V14.01,2013-02-16 04:00:00,
2013-02-15 20:10:00,68.6,29.4,30.09,NE,45,0.0,0.0,23,0.00,,---,0.00,VWS V14.01,2013-02-16 04:10:00,
2013-02-15 20:15:00,68.8,28.4,30.09,NE,45,0.0,0.0,22,0.00,,---,0.00,VWS V14.01,2013-02-16 04:15:00,
2013-02-15 20:20:00,69.1,28.7,30.09,NE,45,0.0,0.0,22,0.00,,---,0.00,VWS V14.01,2013-02-16 04:20:00,
2013-02-15 20:25:00,69.6,29.1,30.09,NE,45,0.0,0.0,22,0.00,,---,0.00,VWS V14.01,2013-02-16 04:25:00,
2013-02-15 20:34:00,69.8,29.3,30.10,NE,45,0.0,0.0,22,0.00,,---,0.00,VWS V14.01,2013-02-16 04:34:00,
2013-02-15 20:40:00,69.9,29.4,30.10,NE,45,0.0,0.0,22,0.00,,---,0.00,VWS V14.01,2013-02-16 04:40:00,
2013-02-15 20:45:00,69.9,30.5,30.10,NE,45,0.0,0.0,23,0.00,,---,0.00,VWS V14.01,2013-02-16 04:45:00,
2013-02-15 20:50:00,69.9,29.4,30.10,NE,45,0.0,0.0,22,0.00,,---,0.00,VWS V14.01,2013-02-16 04:50:00,
2013-02-15 20:55:00,69.9,29.4,30.10,NE,45,0.0,0.0,22,0.00,,---,0.00,VWS V14.01,2013-02-16 04:55:00,
2013-02-15 21:05:00,69.9,30.5,30.10,NE,45,0.0,0.0,23,0.00,,---,0.00,VWS V14.01,2013-02-16 05:05:00,
2013-02-15 21:10:00,69.8,29.3,30.10,NE,45,0.0,0.0,22,0.00,,---,0.00,VWS V14.01,2013-02-16 05:10:00,
2013-02-15 21:15:00,69.6,29.1,30.10,NE,45,0.0,0.0,22,0.00,,---,0.00,VWS V14.01,2013-02-16 05:15:00,
2013-02-15 21:19:00,69.6,30.2,30.10,NE,45,0.0,0.0,23,0.00,,---,0.00,VWS V14.01,2013-02-16 05:19:00,
2013-02-15 21:25:00,69.4,30.0,30.10,NE,45,0.0,0.0,23,0.00,,---,0.00,VWS V14.01,2013-02-16 05:25:00,
2013-02-15 21:34:00,69.3,28.9,30.10,NE,45,0.0,0.0,22,0.00,,---,0.00,VWS V14.01,2013-02-16 05:34:00,
2013-02-15 21:39:00,68.9,29.6,30.10,NE,45,0.0,0.0,23,0.00,,---,0.00,VWS V14.01,2013-02-16 05:39:00,
2013-02-15 21:44:00,68.6,30.4,30.10,NE,45,0.0,0.0,24,0.00,,---,0.00,VWS V14.01,2013-02-16 05:44:00,
2013-02-15 21:49:00,68.3,30.1,30.10,NE,45,0.0,0.0,24,0.00,,---,0.00,VWS V14.01,2013-02-16 05:49:00,
2013-02-15 21:54:00,67.9,29.8,30.10,NE,45,0.0,0.0,24,0.00,,---,0.00,VWS V14.01,2013-02-16 05:54:00,
2013-02-15 22:00:00,67.8,30.7,30.10,NE,45,0.0,0.0,25,0.00,,---,0.00,VWS V14.01,2013-02-16 06:00:00,
2013-02-15 22:05:00,67.3,29.3,30.10,NE,45,0.0,0.0,24,0.00,,---,0.00,VWS V14.01,2013-02-16 06:05:00,
2013-02-15 22:10:00,66.9,29.0,30.10,NE,45,0.0,0.0,24,0.00,,---,0.00,VWS V14.01,2013-02-16 06:10:00,
2013-02-15 22:15:00,66.8,28.9,30.10,NE,45,0.0,0.0,24,0.00,,---,0.00,VWS V14.01,2013-02-16 06:15:00,
2013-02-15 22:20:00,66.8,29.9,30.10,NE,45,0.0,0.0,25,0.00,,---,0.00,VWS V14.01,2013-02-16 06:20:00,
2013-02-15 22:25:00,66.6,28.7,30.10,NE,45,0.0,0.0,24,0.00,,---,0.00,VWS V14.01,2013-02-16 06:25:00,
2013-02-15 22:30:00,66.6,29.7,30.10,NE,45,0.0,0.0,25,0.00,,---,0.00,VWS V14.01,2013-02-16 06:30:00,
2013-02-15 22:35:00,66.6,28.7,30.10,NE,45,0.0,0.0,24,0.00,,---,0.00,VWS V14.01,2013-02-16 06:35:00,
2013-02-15 22:40:00,66.6,28.7,30.10,NE,45,0.0,0.0,24,0.00,,---,0.00,VWS V14.01,2013-02-16 06:40:00,
2013-02-15 22:45:00,66.4,29.5,30.09,NE,45,0.0,0.0,25,0.00,,---,0.00,VWS V14.01,2013-02-16 06:45:00,
2013-02-15 22:50:00,66.3,29.5,30.09,NE,45,0.0,0.0,25,0.00,,---,0.00,VWS V14.01,2013-02-16 06:50:00,
2013-02-15 23:00:00,66.3,29.5,30.09,NE,45,0.0,0.0,25,0.00,,---,0.00,VWS V14.01,2013-02-16 07:00:00,
2013-02-15 23:05:00,66.1,29.3,30.09,NE,45,0.0,0.0,25,0.00,,---,0.00,VWS V14.01,2013-02-16 07:05:00,
2013-02-15 23:14:00,66.0,29.2,30.09,NE,45,0.0,0.0,25,0.00,,---,0.00,VWS V14.01,2013-02-16 07:14:00,
2013-02-15 23:19:00,66.0,28.2,30.09,NE,45,0.0,0.0,24,0.00,,---,0.00,VWS V14.01,2013-02-16 07:19:00,
2013-02-15 23:24:00,66.0,28.2,30.09,NE,45,0.0,0.0,24,0.00,,---,0.00,VWS V14.01,2013-02-16 07:24:00,
2013-02-15 23:29:00,66.1,27.2,30.09,NE,45,0.0,0.0,23,0.00,,---,0.00,VWS V14.01,2013-02-16 07:29:00,
2013-02-15 23:35:00,66.3,28.5,30.09,NE,45,0.0,0.0,24,0.00,,---,0.00,VWS V14.01,2013-02-16 07:35:00,
2013-02-15 23:44:00,66.3,28.5,30.08,NE,45,0.0,0.0,24,0.00,,---,0.00,VWS V14.01,2013-02-16 07:44:00,
2013-02-15 23:49:00,66.3,28.5,30.08,NE,45,0.0,0.0,24,0.00,,---,0.00,VWS V14.01,2013-02-16 07:49:00,
2013-02-15 23:55:00,66.3,28.5,30.08,NE,45,0.0,0.0,24,0.00,,---,0.00,VWS V14.01,2013-02-16 07:55:00,